Time;durP1;ratioP1;P1;durP2;ratioP2;P2;SDS_P1;SDS_P2;PMS_P1;PMS_P2;Temp;Humidity;BMP_temperature;BMP_pressure;BME280_temperature;BME280_humidity;BME280_pressure;Samples;Min_cycle;Max_cycle;Signal;HPM_P1;HPM_P2
2023/05/27 00:01:51;;;;;;;9.25;1.70;;;;;;;;;;5069699;28;20562;-42
2023/05/27 00:04:18;;;;;;;9.52;1.33;;;;;;;;;;5076680;28;20590;-41
2023/05/27 00:06:45;;;;;;;16.15;1.27;;;;;;;;;;5079142;28;20058;-43
2023/05/27 00:09:13;;;;;;;12.43;1.70;;;;;;;;;;5091179;28;20036;-44
2023/05/27 00:11:40;;;;;;;10.57;1.42;;;;;;;;;;5090846;28;20031;-42
2023/05/27 00:14:07;;;;;;;8.25;1.77;;;;;;;;;;5091271;28;20032;-41
2023/05/27 00:16:35;;;;;;;12.07;1.65;;;;;;;;;;5091418;28;20024;-40
2023/05/27 00:19:03;;;;;;;13.25;2.00;;;;;;;;;;5090894;28;20040;-40
2023/05/27 00:21:30;;;;;;;13.05;1.98;;;;;;;;;;5090913;28;20055;-41
2023/05/27 00:24:00;;;;;;;20.23;2.45;;;;;;;;;;5088841;28;21220;-41
2023/05/27 00:26:27;;;;;;;10.32;2.65;;;;;;;;;;5071012;28;20044;-43
2023/05/27 00:28:54;;;;;;;26.08;4.55;;;;;;;;;;5084263;28;20047;-42
2023/05/27 00:31:21;;;;;;;34.63;10.60;;;;;;;;;;5073497;28;20024;-43
2023/05/27 00:33:48;;;;;;;54.88;17.33;;;;;;;;;;5091022;28;20024;-41
2023/05/27 00:36:16;;;;;;;70.43;21.38;;;;;;;;;;5089878;28;20020;-41
2023/05/27 00:38:44;;;;;;;86.45;25.60;;;;;;;;;;5090855;28;20039;-41
2023/05/27 00:41:14;;;;;;;83.00;27.40;;;;;;;;;;5090235;28;20063;-41
2023/05/27 00:43:41;;;;;;;70.35;23.63;;;;;;;;;;5091714;28;20044;-41
2023/05/27 00:46:08;;;;;;;81.05;23.95;;;;;;;;;;5090752;28;20036;-41
2023/05/27 00:48:35;;;;;;;70.55;24.42;;;;;;;;;;5091494;28;20107;-42
2023/05/27 00:51:03;;;;;;;72.65;23.48;;;;;;;;;;5091050;28;20024;-41
2023/05/27 00:53:32;;;;;;;78.65;24.23;;;;;;;;;;5091389;28;20050;-42
2023/05/27 00:55:59;;;;;;;72.53;23.92;;;;;;;;;;5090779;28;20028;-41
2023/05/27 00:58:27;;;;;;;61.03;22.23;;;;;;;;;;5072700;28;20529;-41
2023/05/27 01:00:56;;;;;;;72.22;23.50;;;;;;;;;;5072977;28;20042;-42
2023/05/27 01:03:23;;;;;;;62.22;21.85;;;;;;;;;;5091098;28;20044;-41
2023/05/27 01:05:52;;;;;;;56.00;20.60;;;;;;;;;;5090297;28;20048;-41
2023/05/27 01:08:39;;;;;;;51.65;20.38;;;;;;;;;;5090068;28;20032;-43
2023/05/27 01:11:09;;;;;;;48.08;18.55;;;;;;;;;;5038385;28;20398;-44
2023/05/27 01:13:44;;;;;;;50.92;18.88;;;;;;;;;;5088969;28;20056;-42
2023/05/27 01:16:16;;;;;;;51.85;18.58;;;;;;;;;;5078781;28;20028;-43
2023/05/27 01:18:46;;;;;;;52.75;17.73;;;;;;;;;;5088444;28;20126;-41
2023/05/27 01:21:15;;;;;;;42.25;16.95;;;;;;;;;;5074399;28;20122;-44
2023/05/27 01:23:47;;;;;;;42.60;16.40;;;;;;;;;;5069989;28;20040;-42
2023/05/27 01:26:15;;;;;;;48.15;15.88;;;;;;;;;;5069415;28;20131;-43
2023/05/27 01:28:42;;;;;;;41.72;17.05;;;;;;;;;;5069802;28;20025;-43
2023/05/27 01:31:15;;;;;;;42.35;16.17;;;;;;;;;;5083168;28;20097;-43
2023/05/27 01:33:45;;;;;;;42.15;14.40;;;;;;;;;;5069656;28;20028;-43
2023/05/27 01:36:15;;;;;;;38.00;13.52;;;;;;;;;;5070248;28;20144;-42
2023/05/27 01:38:44;;;;;;;35.10;12.48;;;;;;;;;;5082833;28;20032;-42
2023/05/27 01:41:11;;;;;;;32.63;12.73;;;;;;;;;;5078584;28;20099;-44
2023/05/27 01:43:40;;;;;;;33.45;11.98;;;;;;;;;;5073719;28;20521;-43
2023/05/27 01:46:08;;;;;;;33.80;11.55;;;;;;;;;;5089062;28;20112;-42
2023/05/27 01:48:35;;;;;;;32.22;12.35;;;;;;;;;;5089355;28;20028;-43
2023/05/27 01:51:02;;;;;;;34.45;11.57;;;;;;;;;;5088031;28;20016;-45
2023/05/27 01:53:29;;;;;;;34.55;10.88;;;;;;;;;;5089521;28;20035;-41
2023/05/27 01:55:56;;;;;;;30.23;10.43;;;;;;;;;;5092939;28;20120;-41
2023/05/27 01:58:23;;;;;;;33.35;10.80;;;;;;;;;;5092355;28;20016;-42
2023/05/27 02:00:50;;;;;;;34.25;10.77;;;;;;;;;;5091541;28;20035;-43
2023/05/27 02:03:17;;;;;;;29.10;9.40;;;;;;;;;;5075721;28;20131;-42
2023/05/27 02:05:45;;;;;;;33.80;10.20;;;;;;;;;;5093005;28;20097;-41
2023/05/27 02:08:12;;;;;;;34.13;10.25;;;;;;;;;;5093196;28;20034;-40
2023/05/27 02:10:39;;;;;;;33.92;10.15;;;;;;;;;;5092541;28;20381;-41
2023/05/27 02:13:06;;;;;;;33.53;9.63;;;;;;;;;;5074614;28;20034;-43
2023/05/27 02:15:33;;;;;;;33.17;9.43;;;;;;;;;;5092868;28;20496;-41
2023/05/27 02:18:00;;;;;;;27.55;8.90;;;;;;;;;;5092741;28;20050;-42
2023/05/27 02:20:29;;;;;;;32.55;8.75;;;;;;;;;;5092541;28;20031;-41
2023/05/27 02:22:56;;;;;;;25.17;8.23;;;;;;;;;;5092655;28;20477;-42
2023/05/27 02:25:23;;;;;;;22.73;7.90;;;;;;;;;;5073679;28;20039;-42
2023/05/27 02:27:52;;;;;;;20.55;7.07;;;;;;;;;;5092613;28;20028;-43
2023/05/27 02:30:19;;;;;;;21.77;7.70;;;;;;;;;;5092400;28;20028;-44
2023/05/27 02:32:46;;;;;;;21.70;7.22;;;;;;;;;;5092302;28;20074;-41
2023/05/27 02:35:16;;;;;;;20.02;7.15;;;;;;;;;;5092730;28;20099;-43
2023/05/27 02:37:43;;;;;;;23.00;7.57;;;;;;;;;;5090444;28;20073;-43
2023/05/27 02:40:10;;;;;;;18.40;6.75;;;;;;;;;;5092984;28;20028;-42
2023/05/27 02:42:38;;;;;;;20.38;7.47;;;;;;;;;;5092532;28;20386;-43
2023/05/27 02:45:05;;;;;;;19.25;6.82;;;;;;;;;;5074793;28;20100;-43
2023/05/27 02:50:02;;;;;;;17.98;6.45;;;;;;;;;;5034620;28;20070;-49
2023/05/27 02:52:30;;;;;;;15.65;5.85;;;;;;;;;;5072342;28;20025;-43
2023/05/27 02:54:58;;;;;;;18.80;6.55;;;;;;;;;;5072313;28;20034;-47
2023/05/27 02:57:41;;;;;;;23.27;6.15;;;;;;;;;;5053897;28;20214;-49
2023/05/27 03:00:09;;;;;;;16.02;5.88;;;;;;;;;;5069858;28;20081;-44
2023/05/27 03:02:36;;;;;;;13.00;5.88;;;;;;;;;;5072176;28;20073;-46
2023/05/27 03:05:04;;;;;;;14.35;5.38;;;;;;;;;;5053515;28;20031;-46
2023/05/27 03:07:31;;;;;;;17.73;5.60;;;;;;;;;;5071723;28;20111;-51
2023/05/27 03:09:59;;;;;;;14.93;5.38;;;;;;;;;;5071910;28;20137;-45
2023/05/27 03:12:26;;;;;;;14.27;5.80;;;;;;;;;;5058438;28;20106;-46
2023/05/27 03:14:53;;;;;;;14.57;5.00;;;;;;;;;;5071920;28;20060;-46
2023/05/27 03:17:21;;;;;;;12.90;5.03;;;;;;;;;;5071943;28;20032;-44
2023/05/27 03:19:48;;;;;;;15.10;4.93;;;;;;;;;;5069314;28;20088;-44
2023/05/27 03:22:15;;;;;;;13.98;4.70;;;;;;;;;;5071765;28;20021;-44
2023/05/27 03:24:43;;;;;;;11.85;4.15;;;;;;;;;;5071863;28;20036;-46
2023/05/27 03:27:10;;;;;;;12.00;4.60;;;;;;;;;;5072696;28;20113;-44
2023/05/27 03:29:37;;;;;;;13.32;4.85;;;;;;;;;;5054945;28;20032;-47
2023/05/27 03:32:05;;;;;;;11.80;3.97;;;;;;;;;;5073060;28;20028;-47
2023/05/27 03:34:32;;;;;;;11.95;4.53;;;;;;;;;;5072680;28;20028;-42
2023/05/27 03:37:00;;;;;;;9.98;4.28;;;;;;;;;;5072814;28;20036;-44
2023/05/27 03:39:27;;;;;;;9.30;3.65;;;;;;;;;;5072654;28;20055;-42
2023/05/27 03:41:54;;;;;;;10.75;3.72;;;;;;;;;;5054721;28;20028;-43
2023/05/27 03:44:22;;;;;;;10.02;3.80;;;;;;;;;;5072835;28;20036;-44
2023/05/27 03:46:49;;;;;;;11.00;4.00;;;;;;;;;;5072641;28;20494;-43
2023/05/27 03:49:17;;;;;;;8.77;3.70;;;;;;;;;;5072099;28;20691;-42
2023/05/27 03:51:44;;;;;;;7.72;3.47;;;;;;;;;;5072673;28;20056;-44
2023/05/27 03:54:11;;;;;;;9.30;3.65;;;;;;;;;;5072623;28;20028;-43
2023/05/27 03:56:38;;;;;;;8.63;3.60;;;;;;;;;;5072476;28;20036;-44
2023/05/27 03:59:08;;;;;;;9.30;3.63;;;;;;;;;;5072446;28;20028;-46
2023/05/27 04:01:36;;;;;;;8.68;3.60;;;;;;;;;;5072267;28;20033;-45
2023/05/27 04:04:03;;;;;;;9.15;3.38;;;;;;;;;;5072256;28;20040;-43
2023/05/27 04:06:31;;;;;;;7.40;3.25;;;;;;;;;;5072131;28;20490;-44
2023/05/27 04:08:58;;;;;;;6.57;3.30;;;;;;;;;;5072041;28;20131;-43
2023/05/27 04:11:28;;;;;;;8.60;3.38;;;;;;;;;;5054534;28;20107;-43
2023/05/27 04:14:01;;;;;;;7.32;3.25;;;;;;;;;;5072092;28;20052;-43
2023/05/27 04:16:30;;;;;;;9.32;3.10;;;;;;;;;;5070940;28;20071;-44
2023/05/27 04:18:58;;;;;;;8.13;3.20;;;;;;;;;;5071870;28;20056;-43
2023/05/27 04:21:26;;;;;;;6.32;2.72;;;;;;;;;;5071861;28;20107;-44
2023/05/27 04:23:53;;;;;;;6.40;2.95;;;;;;;;;;5071959;28;20378;-42
2023/05/27 04:26:20;;;;;;;5.95;2.70;;;;;;;;;;5071893;28;20037;-42
2023/05/27 04:28:48;;;;;;;5.85;3.03;;;;;;;;;;5053699;28;20036;-41
2023/05/27 04:31:15;;;;;;;6.75;2.85;;;;;;;;;;5071986;28;20103;-42
2023/05/27 04:33:43;;;;;;;6.25;2.83;;;;;;;;;;5071818;28;20505;-42
2023/05/27 04:36:10;;;;;;;7.80;2.83;;;;;;;;;;5071715;28;20036;-42
2023/05/27 04:38:37;;;;;;;7.53;3.13;;;;;;;;;;5071719;28;20034;-42
2023/05/27 04:41:04;;;;;;;8.27;2.33;;;;;;;;;;5071873;28;20060;-42
2023/05/27 04:43:33;;;;;;;7.15;2.92;;;;;;;;;;5071554;28;20037;-42
2023/05/27 04:46:00;;;;;;;6.45;2.35;;;;;;;;;;5071723;28;20089;-44
2023/05/27 04:48:27;;;;;;;7.38;2.70;;;;;;;;;;5071275;28;20038;-43
2023/05/27 04:50:54;;;;;;;4.82;2.03;;;;;;;;;;5071727;28;20394;-43
2023/05/27 04:53:21;;;;;;;4.72;1.92;;;;;;;;;;5071477;28;20424;-42
2023/05/27 04:55:49;;;;;;;4.70;2.38;;;;;;;;;;5071693;28;20029;-42
2023/05/27 04:58:15;;;;;;;5.05;2.10;;;;;;;;;;5071637;28;20048;-42
2023/05/27 05:00:56;;;;;;;6.07;2.30;;;;;;;;;;5071589;28;20025;-44
2023/05/27 05:03:36;;;;;;;4.10;1.95;;;;;;;;;;5071401;28;20089;-43
2023/05/27 05:06:03;;;;;;;5.30;2.30;;;;;;;;;;5071514;28;20035;-43
2023/05/27 05:08:31;;;;;;;4.78;1.90;;;;;;;;;;5071417;28;20054;-42
2023/05/27 05:10:58;;;;;;;4.88;1.77;;;;;;;;;;5071308;28;20394;-45
2023/05/27 05:13:28;;;;;;;3.03;1.58;;;;;;;;;;5053426;28;20635;-44
2023/05/27 05:15:55;;;;;;;4.93;2.00;;;;;;;;;;5071348;28;20079;-44
2023/05/27 05:18:23;;;;;;;3.80;1.77;;;;;;;;;;5071141;28;20033;-43
2023/05/27 05:20:50;;;;;;;3.97;1.70;;;;;;;;;;5071440;28;20029;-44
2023/05/27 05:23:17;;;;;;;4.10;1.80;;;;;;;;;;5071237;28;20047;-43
2023/05/27 05:25:44;;;;;;;4.88;1.52;;;;;;;;;;5071219;28;20041;-43
2023/05/27 05:28:11;;;;;;;3.67;1.67;;;;;;;;;;5072837;28;20430;-44
2023/05/27 05:30:39;;;;;;;3.58;1.60;;;;;;;;;;5075091;28;20025;-43
2023/05/27 05:33:06;;;;;;;4.40;1.35;;;;;;;;;;5075529;28;20055;-44
2023/05/27 05:35:33;;;;;;;2.70;1.45;;;;;;;;;;5075252;28;20478;-44
2023/05/27 05:38:00;;;;;;;4.05;1.40;;;;;;;;;;5075069;28;20550;-43
2023/05/27 05:40:27;;;;;;;3.35;1.55;;;;;;;;;;5075148;28;20027;-44
2023/05/27 05:42:53;;;;;;;2.40;1.42;;;;;;;;;;5074990;28;20029;-43
2023/05/27 05:45:21;;;;;;;2.67;1.52;;;;;;;;;;5074939;28;20071;-44
2023/05/27 05:47:47;;;;;;;2.55;1.33;;;;;;;;;;5074832;28;20039;-46
2023/05/27 05:50:15;;;;;;;2.95;1.67;;;;;;;;;;5074812;28;20045;-43
2023/05/27 05:52:42;;;;;;;2.95;1.27;;;;;;;;;;5074859;28;20074;-43
2023/05/27 05:55:09;;;;;;;3.05;1.27;;;;;;;;;;5074854;28;20099;-44
2023/05/27 05:57:36;;;;;;;3.20;1.63;;;;;;;;;;5074458;28;20061;-43
2023/05/27 06:00:03;;;;;;;3.30;1.10;;;;;;;;;;5074609;28;20029;-44
2023/05/27 06:02:30;;;;;;;2.70;1.20;;;;;;;;;;5073395;28;20498;-45
2023/05/27 06:04:58;;;;;;;3.17;1.38;;;;;;;;;;5074623;28;20032;-44
2023/05/27 06:07:25;;;;;;;2.42;1.25;;;;;;;;;;5074372;28;20040;-45
2023/05/27 06:09:52;;;;;;;3.38;1.20;;;;;;;;;;5074553;28;20038;-46
2023/05/27 06:12:18;;;;;;;2.05;1.10;;;;;;;;;;5074550;28;20078;-44
2023/05/27 06:14:46;;;;;;;3.65;1.40;;;;;;;;;;5074546;28;20467;-43
2023/05/27 06:17:13;;;;;;;2.70;1.00;;;;;;;;;;5074272;28;20045;-45
2023/05/27 06:19:40;;;;;;;2.42;1.35;;;;;;;;;;5074253;28;20031;-44
2023/05/27 06:22:08;;;;;;;4.57;1.45;;;;;;;;;;5074388;28;20052;-43
2023/05/27 06:24:35;;;;;;;2.55;1.13;;;;;;;;;;5074308;28;20017;-45
2023/05/27 06:27:02;;;;;;;2.38;1.17;;;;;;;;;;5073851;28;20569;-43
2023/05/27 06:29:29;;;;;;;5.43;1.17;;;;;;;;;;5074029;28;20028;-43
2023/05/27 06:31:56;;;;;;;2.10;1.00;;;;;;;;;;5074252;28;20158;-47
2023/05/27 06:34:23;;;;;;;1.70;0.95;;;;;;;;;;5074121;28;20043;-44
2023/05/27 06:36:50;;;;;;;2.80;1.10;;;;;;;;;;5074027;28;20036;-44
2023/05/27 06:39:17;;;;;;;3.35;0.88;;;;;;;;;;5073107;28;20025;-43
2023/05/27 06:41:44;;;;;;;1.77;1.10;;;;;;;;;;5073979;28;20029;-44
2023/05/27 06:44:11;;;;;;;2.17;0.90;;;;;;;;;;5073797;28;20032;-44
2023/05/27 06:46:38;;;;;;;2.15;1.00;;;;;;;;;;5073898;28;20387;-46
2023/05/27 06:49:05;;;;;;;1.80;0.90;;;;;;;;;;5073422;28;20119;-45
2023/05/27 06:51:32;;;;;;;2.00;0.90;;;;;;;;;;5073764;28;20031;-43
2023/05/27 06:53:59;;;;;;;2.05;1.05;;;;;;;;;;5073748;28;20039;-44
2023/05/27 06:56:26;;;;;;;2.22;1.00;;;;;;;;;;5073623;28;20032;-45
2023/05/27 06:58:53;;;;;;;2.38;0.90;;;;;;;;;;5073628;28;20024;-45
2023/05/27 07:01:20;;;;;;;1.80;1.08;;;;;;;;;;5073562;28;20532;-44
2023/05/27 07:03:47;;;;;;;1.70;0.82;;;;;;;;;;5073325;28;20037;-44
2023/05/27 07:06:16;;;;;;;1.23;0.77;;;;;;;;;;5055270;28;20131;-44
2023/05/27 07:08:42;;;;;;;1.48;0.70;;;;;;;;;;5073257;28;20036;-43
2023/05/27 07:11:09;;;;;;;2.38;0.85;;;;;;;;;;5073288;28;20052;-44
2023/05/27 07:13:36;;;;;;;1.77;0.73;;;;;;;;;;5073415;28;20035;-44
2023/05/27 07:16:04;;;;;;;2.25;0.90;;;;;;;;;;5073352;28;20054;-51
2023/05/27 07:18:31;;;;;;;1.05;0.70;;;;;;;;;;5055180;28;20099;-44
2023/05/27 07:20:57;;;;;;;1.52;0.70;;;;;;;;;;5073335;28;20021;-42
2023/05/27 07:23:25;;;;;;;1.55;0.73;;;;;;;;;;5073262;28;20102;-43
2023/05/27 07:25:52;;;;;;;1.55;0.68;;;;;;;;;;5073005;28;20436;-41
2023/05/27 07:28:18;;;;;;;2.05;0.88;;;;;;;;;;5054805;28;20052;-42
2023/05/27 07:30:45;;;;;;;3.08;0.80;;;;;;;;;;5072839;28;20394;-43
2023/05/27 07:33:12;;;;;;;0.88;0.60;;;;;;;;;;5073004;28;20099;-41
2023/05/27 07:35:40;;;;;;;1.15;0.60;;;;;;;;;;5072889;28;20028;-42
2023/05/27 07:38:07;;;;;;;1.70;0.80;;;;;;;;;;5072801;28;20025;-42
2023/05/27 07:40:34;;;;;;;2.10;0.80;;;;;;;;;;5072664;28;20035;-44
2023/05/27 07:43:01;;;;;;;1.48;0.70;;;;;;;;;;5072775;28;20085;-43
2023/05/27 07:45:28;;;;;;;2.50;0.70;;;;;;;;;;5072390;28;20394;-41
2023/05/27 07:47:55;;;;;;;1.02;0.60;;;;;;;;;;5072386;28;20028;-41
2023/05/27 07:50:22;;;;;;;1.35;0.70;;;;;;;;;;5072361;28;20416;-42
2023/05/27 07:52:49;;;;;;;1.67;0.50;;;;;;;;;;5072527;28;20604;-43
2023/05/27 07:55:16;;;;;;;1.10;0.60;;;;;;;;;;5072546;28;20398;-43
2023/05/27 07:57:43;;;;;;;1.10;0.55;;;;;;;;;;5072285;28;20035;-42
2023/05/27 08:00:10;;;;;;;1.02;0.60;;;;;;;;;;5072238;28;20028;-43
2023/05/27 08:02:37;;;;;;;3.67;0.70;;;;;;;;;;5072335;28;20020;-43
2023/05/27 08:05:04;;;;;;;1.73;0.70;;;;;;;;;;5072301;28;20025;-42
2023/05/27 08:07:32;;;;;;;2.15;0.77;;;;;;;;;;5072344;28;20028;-41
2023/05/27 08:09:59;;;;;;;1.63;0.70;;;;;;;;;;5072118;28;20048;-42
2023/05/27 08:12:26;;;;;;;1.63;0.60;;;;;;;;;;5072288;28;20039;-44
2023/05/27 08:14:53;;;;;;;1.00;0.57;;;;;;;;;;5072122;28;20024;-43
2023/05/27 08:17:20;;;;;;;1.67;0.60;;;;;;;;;;5071861;28;20462;-43
2023/05/27 08:19:47;;;;;;;1.27;0.50;;;;;;;;;;5072140;28;20039;-43
2023/05/27 08:22:14;;;;;;;0.60;0.40;;;;;;;;;;5071881;28;20020;-42
2023/05/27 08:24:41;;;;;;;1.30;0.50;;;;;;;;;;5072051;28;20103;-43
2023/05/27 08:27:18;;;;;;;1.30;0.50;;;;;;;;;;5071734;28;20118;-42
2023/05/27 08:29:45;;;;;;;1.48;0.47;;;;;;;;;;5071823;28;20032;-43
2023/05/27 08:32:12;;;;;;;2.15;0.40;;;;;;;;;;5071639;28;20024;-43
2023/05/27 08:34:41;;;;;;;1.48;0.43;;;;;;;;;;5071912;28;20028;-42
2023/05/27 08:37:08;;;;;;;1.25;0.50;;;;;;;;;;5071574;28;20036;-42
2023/05/27 08:39:35;;;;;;;1.02;0.50;;;;;;;;;;5071775;28;20051;-42
2023/05/27 08:42:04;;;;;;;0.93;0.50;;;;;;;;;;5071686;28;20055;-42
2023/05/27 08:44:32;;;;;;;3.35;0.75;;;;;;;;;;5071787;28;20060;-43
2023/05/27 08:46:59;;;;;;;3.17;0.60;;;;;;;;;;5071632;28;20034;-41
2023/05/27 08:49:26;;;;;;;0.90;0.50;;;;;;;;;;5071530;28;20067;-42
2023/05/27 08:51:54;;;;;;;0.75;0.50;;;;;;;;;;5071632;28;20025;-42
2023/05/27 08:54:21;;;;;;;0.88;0.40;;;;;;;;;;5071505;28;20082;-43
2023/05/27 08:56:51;;;;;;;1.25;0.50;;;;;;;;;;5071504;28;20033;-43
2023/05/27 08:59:18;;;;;;;0.82;0.32;;;;;;;;;;5071474;28;20032;-42
2023/05/27 09:01:45;;;;;;;2.67;0.50;;;;;;;;;;5071506;28;20111;-43
2023/05/27 09:04:12;;;;;;;1.20;0.57;;;;;;;;;;5071000;28;20031;-42
2023/05/27 09:06:39;;;;;;;1.38;0.50;;;;;;;;;;5071418;28;20402;-43
2023/05/27 09:09:09;;;;;;;1.58;0.50;;;;;;;;;;5071406;28;20024;-42
2023/05/27 09:11:40;;;;;;;0.80;0.40;;;;;;;;;;5071308;28;20526;-42
2023/05/27 09:14:07;;;;;;;3.60;0.45;;;;;;;;;;5071434;28;20052;-43
2023/05/27 09:16:34;;;;;;;0.77;0.30;;;;;;;;;;5071457;28;20036;-42
2023/05/27 09:19:01;;;;;;;1.35;0.50;;;;;;;;;;5071071;28;20482;-42
2023/05/27 09:21:28;;;;;;;2.72;0.50;;;;;;;;;;5071297;28;20029;-42
2023/05/27 09:23:58;;;;;;;0.93;0.30;;;;;;;;;;5071235;28;20055;-42
2023/05/27 09:26:25;;;;;;;1.10;0.40;;;;;;;;;;5071061;28;20036;-42
2023/05/27 09:28:52;;;;;;;1.25;0.40;;;;;;;;;;5070969;28;20502;-43
2023/05/27 09:31:22;;;;;;;0.82;0.40;;;;;;;;;;5071269;28;20596;-42
2023/05/27 09:33:50;;;;;;;10.13;0.68;;;;;;;;;;5071011;28;20402;-43
2023/05/27 09:36:21;;;;;;;5.10;0.68;;;;;;;;;;5071243;28;20039;-42
2023/05/27 09:38:49;;;;;;;6.93;0.30;;;;;;;;;;5070921;28;20029;-43
2023/05/27 09:41:16;;;;;;;1.25;0.30;;;;;;;;;;5071049;28;20051;-42
2023/05/27 09:43:43;;;;;;;2.78;0.40;;;;;;;;;;5071049;28;20024;-43
2023/05/27 09:46:13;;;;;;;0.60;0.30;;;;;;;;;;5071061;28;20367;-42
2023/05/27 09:48:40;;;;;;;1.98;0.30;;;;;;;;;;5070853;28;20078;-42
2023/05/27 09:51:08;;;;;;;0.43;0.20;;;;;;;;;;5070833;28;20027;-43
2023/05/27 09:53:36;;;;;;;2.03;0.40;;;;;;;;;;5070829;28;20032;-43
2023/05/27 09:56:04;;;;;;;0.55;0.40;;;;;;;;;;5070917;28;20032;-45
2023/05/27 09:58:31;;;;;;;0.90;0.20;;;;;;;;;;5070829;28;20029;-43
2023/05/27 10:00:59;;;;;;;1.38;0.30;;;;;;;;;;5070853;28;20074;-43
2023/05/27 10:03:28;;;;;;;1.30;0.40;;;;;;;;;;5070972;28;20429;-42
2023/05/27 10:05:56;;;;;;;3.50;0.38;;;;;;;;;;5070700;28;20033;-42
2023/05/27 10:08:23;;;;;;;1.55;0.43;;;;;;;;;;5070928;28;20024;-45
2023/05/27 10:10:50;;;;;;;1.50;0.30;;;;;;;;;;5070888;28;20482;-42
2023/05/27 10:13:20;;;;;;;1.27;0.30;;;;;;;;;;5070824;28;20423;-43
2023/05/27 10:15:52;;;;;;;0.50;0.25;;;;;;;;;;5073087;28;20043;-43
2023/05/27 10:18:18;;;;;;;;;;;;;;;;;;5074301;28;20025;-43
2023/05/27 10:20:50;;;;;;;0.90;0.30;;;;;;;;;;5074379;28;19978;-42
2023/05/27 10:23:21;;;;;;;1.70;0.40;;;;;;;;;;5073195;28;20082;-43
2023/05/27 10:25:51;;;;;;;0.90;0.30;;;;;;;;;;5073679;28;20048;-45
2023/05/27 10:28:31;;;;;;;1.88;0.30;;;;;;;;;;5064316;28;20118;-43
2023/05/27 10:31:15;;;;;;;0.88;0.30;;;;;;;;;;5071916;28;20024;-42
2023/05/27 10:33:46;;;;;;;1.15;0.40;;;;;;;;;;5073043;28;20029;-42
2023/05/27 10:36:14;;;;;;;2.28;0.30;;;;;;;;;;5070950;28;20103;-42
2023/05/27 10:38:55;;;;;;;2.97;0.40;;;;;;;;;;5073418;28;20029;-43
2023/05/27 10:41:22;;;;;;;3.00;0.40;;;;;;;;;;5071565;28;20024;-42
2023/05/27 10:43:56;;;;;;;2.95;0.35;;;;;;;;;;5070773;28;20112;-42
2023/05/27 10:46:24;;;;;;;1.15;0.40;;;;;;;;;;5073158;28;20830;-43
2023/05/27 10:48:51;;;;;;;1.92;0.40;;;;;;;;;;5072863;28;20053;-43
2023/05/27 10:51:18;;;;;;;1.13;0.30;;;;;;;;;;5073014;28;20020;-43
2023/05/27 10:53:45;;;;;;;4.07;0.40;;;;;;;;;;5073211;28;20482;-43
2023/05/27 10:56:12;;;;;;;1.70;0.32;;;;;;;;;;5073876;28;20058;-42
2023/05/27 10:58:40;;;;;;;1.55;0.40;;;;;;;;;;5073039;28;20024;-42
2023/05/27 11:01:15;;;;;;;1.10;0.30;;;;;;;;;;5072255;28;20500;-42
2023/05/27 11:03:45;;;;;;;0.65;0.30;;;;;;;;;;5072728;28;20116;-42
2023/05/27 11:06:19;;;;;;;2.63;0.70;;;;;;;;;;5073043;28;20028;-42
2023/05/27 11:08:46;;;;;;;1.83;0.40;;;;;;;;;;5070375;28;20048;-43
2023/05/27 11:11:13;;;;;;;0.80;0.30;;;;;;;;;;5072963;28;20471;-42
2023/05/27 11:13:45;;;;;;;2.85;0.38;;;;;;;;;;5073287;28;20025;-47
2023/05/27 11:16:12;;;;;;;3.33;0.50;;;;;;;;;;5072480;28;20024;-43
2023/05/27 11:18:40;;;;;;;1.88;0.20;;;;;;;;;;5072690;28;20033;-44
2023/05/27 11:21:08;;;;;;;3.58;0.47;;;;;;;;;;5046258;28;20422;-43
2023/05/27 11:23:46;;;;;;;0.75;0.22;;;;;;;;;;5072606;28;20036;-45
2023/05/27 11:26:21;;;;;;;3.97;0.50;;;;;;;;;;5069805;28;20032;-46
2023/05/27 11:28:55;;;;;;;3.40;0.32;;;;;;;;;;5072508;28;20024;-45
2023/05/27 11:31:23;;;;;;;7.45;0.50;;;;;;;;;;5072628;28;20032;-45
2023/05/27 11:33:51;;;;;;;10.18;1.15;;;;;;;;;;5069570;28;20478;-44
2023/05/27 11:36:18;;;;;;;6.60;0.95;;;;;;;;;;5072738;28;20028;-44
2023/05/27 11:39:01;;;;;;;8.57;1.00;;;;;;;;;;5072543;28;20047;-44
2023/05/27 11:41:29;;;;;;;5.95;0.90;;;;;;;;;;5072824;28;20095;-44
2023/05/27 11:43:59;;;;;;;11.23;1.20;;;;;;;;;;5072903;28;20082;-45
2023/05/27 11:46:39;;;;;;;8.48;1.00;;;;;;;;;;5072832;28;20510;-45
2023/05/27 11:49:07;;;;;;;6.47;1.00;;;;;;;;;;5072725;28;20549;-44
2023/05/27 11:51:35;;;;;;;4.03;0.88;;;;;;;;;;5072780;28;20028;-45
2023/05/27 11:54:02;;;;;;;6.07;1.00;;;;;;;;;;5072795;28;20103;-44
2023/05/27 11:56:30;;;;;;;7.65;1.27;;;;;;;;;;5072737;28;20036;-44
2023/05/27 11:58:57;;;;;;;3.45;0.90;;;;;;;;;;5072618;28;20115;-45
2023/05/27 12:01:25;;;;;;;4.90;1.00;;;;;;;;;;5072643;28;20024;-44
2023/05/27 12:03:52;;;;;;;11.30;1.10;;;;;;;;;;5072398;28;20033;-45
2023/05/27 12:06:20;;;;;;;8.30;1.10;;;;;;;;;;5072413;28;20032;-45
2023/05/27 12:08:47;;;;;;;3.95;0.90;;;;;;;;;;5072451;28;20029;-45
2023/05/27 12:11:14;;;;;;;4.25;0.90;;;;;;;;;;5072478;28;20021;-44
2023/05/27 12:13:41;;;;;;;4.30;1.20;;;;;;;;;;5072279;28;20040;-44
2023/05/27 12:16:08;;;;;;;5.22;0.95;;;;;;;;;;5072402;28;20029;-45
2023/05/27 12:18:35;;;;;;;4.95;0.98;;;;;;;;;;5072207;28;20029;-44
2023/05/27 12:21:02;;;;;;;4.65;0.90;;;;;;;;;;5072453;28;20036;-44
2023/05/27 12:23:29;;;;;;;5.95;0.95;;;;;;;;;;5072219;28;20478;-44
2023/05/27 12:25:56;;;;;;;1.45;0.80;;;;;;;;;;5072110;28;20045;-47
2023/05/27 12:28:23;;;;;;;3.28;0.77;;;;;;;;;;5072095;28;20036;-44
2023/05/27 12:30:50;;;;;;;4.15;0.90;;;;;;;;;;5072072;28;20028;-44
2023/05/27 12:33:17;;;;;;;3.65;0.70;;;;;;;;;;5072069;28;20033;-44
2023/05/27 12:35:44;;;;;;;3.65;0.77;;;;;;;;;;5072024;28;20024;-44
2023/05/27 12:38:12;;;;;;;2.60;0.68;;;;;;;;;;5071208;28;20514;-46
2023/05/27 12:40:39;;;;;;;3.08;0.70;;;;;;;;;;5071942;28;20031;-44
2023/05/27 12:43:06;;;;;;;2.53;0.60;;;;;;;;;;5071920;28;20070;-44
2023/05/27 12:45:33;;;;;;;5.70;0.90;;;;;;;;;;5071832;28;20040;-44
2023/05/27 12:48:01;;;;;;;3.28;0.85;;;;;;;;;;5053747;28;20032;-45
2023/05/27 12:50:28;;;;;;;4.00;0.63;;;;;;;;;;5071487;28;20418;-44
2023/05/27 12:52:55;;;;;;;4.20;0.70;;;;;;;;;;5071862;28;20056;-44
2023/05/27 12:55:22;;;;;;;3.17;0.60;;;;;;;;;;5071810;28;20082;-45
2023/05/27 12:57:50;;;;;;;3.30;0.60;;;;;;;;;;5071674;28;20482;-44
2023/05/27 13:00:18;;;;;;;2.90;0.80;;;;;;;;;;5071553;28;20025;-44
2023/05/27 13:02:47;;;;;;;3.78;0.75;;;;;;;;;;5071723;28;20486;-44
2023/05/27 13:05:14;;;;;;;1.60;0.60;;;;;;;;;;5071675;28;20059;-44
2023/05/27 13:07:42;;;;;;;3.15;0.70;;;;;;;;;;5071576;28;20565;-44
2023/05/27 13:10:17;;;;;;;1.92;0.60;;;;;;;;;;5071643;28;20044;-44
2023/05/27 13:12:45;;;;;;;3.55;0.73;;;;;;;;;;5071477;28;20028;-44
2023/05/27 13:15:12;;;;;;;2.28;0.77;;;;;;;;;;5071607;28;20056;-44
2023/05/27 13:17:39;;;;;;;3.50;0.80;;;;;;;;;;5071431;28;20471;-44
2023/05/27 13:20:06;;;;;;;3.10;0.70;;;;;;;;;;5071619;28;20033;-44
2023/05/27 13:22:33;;;;;;;1.27;0.40;;;;;;;;;;5071481;28;20437;-45
2023/05/27 13:25:01;;;;;;;1.33;0.40;;;;;;;;;;5071483;28;20379;-44
2023/05/27 13:27:28;;;;;;;1.58;0.60;;;;;;;;;;5071329;28;20086;-44
2023/05/27 13:29:55;;;;;;;1.58;0.60;;;;;;;;;;5071455;28;20082;-44
2023/05/27 13:32:22;;;;;;;6.00;0.63;;;;;;;;;;5071419;28;20520;-45
2023/05/27 13:34:50;;;;;;;2.35;0.40;;;;;;;;;;5053304;28;20028;-45
2023/05/27 13:37:18;;;;;;;1.02;0.50;;;;;;;;;;5071248;28;20411;-44
2023/05/27 13:39:45;;;;;;;2.15;0.60;;;;;;;;;;5071354;28;20490;-44
2023/05/27 13:42:12;;;;;;;1.30;0.60;;;;;;;;;;5071347;28;20506;-44
2023/05/27 13:44:39;;;;;;;2.53;0.82;;;;;;;;;;5071296;28;20052;-46
2023/05/27 13:47:06;;;;;;;0.90;0.40;;;;;;;;;;5071097;28;20024;-44
2023/05/27 13:49:33;;;;;;;1.52;0.57;;;;;;;;;;5073111;28;20044;-44
2023/05/27 13:52:00;;;;;;;2.30;0.50;;;;;;;;;;5074979;28;20028;-44
2023/05/27 13:54:27;;;;;;;2.25;0.57;;;;;;;;;;5075105;28;20050;-44
2023/05/27 13:56:54;;;;;;;1.73;0.60;;;;;;;;;;5074799;28;20466;-43
2023/05/27 13:59:21;;;;;;;1.70;0.47;;;;;;;;;;5056942;28;20394;-44
2023/05/27 14:01:50;;;;;;;2.30;0.60;;;;;;;;;;5074928;28;20043;-44
2023/05/27 14:04:17;;;;;;;1.95;0.47;;;;;;;;;;5074776;28;20029;-44
2023/05/27 14:06:44;;;;;;;2.00;0.57;;;;;;;;;;5074656;28;20572;-45
2023/05/27 14:09:11;;;;;;;2.10;0.50;;;;;;;;;;5074763;28;20032;-46
2023/05/27 14:11:39;;;;;;;0.80;0.43;;;;;;;;;;5074729;28;20025;-49
2023/05/27 14:14:06;;;;;;;2.03;0.50;;;;;;;;;;5074739;28;20528;-46
2023/05/27 14:16:33;;;;;;;1.27;0.30;;;;;;;;;;5074645;28;20158;-45
2023/05/27 14:19:00;;;;;;;1.65;0.50;;;;;;;;;;5074536;28;20024;-50
2023/05/27 14:21:27;;;;;;;1.42;0.40;;;;;;;;;;5074600;28;20031;-47
2023/05/27 14:23:54;;;;;;;1.08;0.40;;;;;;;;;;5074431;28;20818;-45
2023/05/27 14:26:21;;;;;;;2.85;0.40;;;;;;;;;;5074455;28;20060;-45
2023/05/27 14:28:48;;;;;;;1.20;0.40;;;;;;;;;;5074526;28;20032;-48
2023/05/27 14:31:15;;;;;;;1.00;0.40;;;;;;;;;;5074399;28;20029;-46
2023/05/27 14:33:42;;;;;;;0.52;0.40;;;;;;;;;;5074397;28;20021;-47
2023/05/27 14:36:09;;;;;;;1.48;0.30;;;;;;;;;;5074229;28;20025;-45
2023/05/27 14:38:36;;;;;;;1.60;0.57;;;;;;;;;;5074070;28;20031;-44
2023/05/27 14:41:03;;;;;;;1.63;0.50;;;;;;;;;;5074185;28;20113;-45
2023/05/27 14:43:30;;;;;;;1.08;0.40;;;;;;;;;;5074193;28;20059;-47
2023/05/27 14:45:57;;;;;;;1.73;0.40;;;;;;;;;;5074083;28;20036;-46